UAL1184 KDEN-KOKC
Flight info
| Callsign | UAL1184 |
|---|---|
| Flight time | 1h 12m |
| Altitude | 35000 |
| Route | EPKEE7 DUUZE ROLLS CAMET3 |
| Aircraft | A319/M-SDE3FGHIRWY/LB1 |
Departure
| Time | 2026-04-21 22:02 |
|---|---|
| Airport | Denver International Airport (KDEN) |
Arrival
| Time | 2026-04-21 23:15 |
|---|---|
| Airport | OKC Will Rogers World Airport (KOKC) |
| Time | Latitude | Longitude | Altitude | Speed | Heading |
|---|---|---|---|---|---|
| 2026-04-21 21:40 | 39.85810 | -104.67950 | 5387 ft | 0 kts | 2° |
| 2026-04-21 21:50 | 39.85788 | -104.67951 | 5384 ft | 4 kts | 2° |
| 2026-04-21 21:51 | 39.85761 | -104.67953 | 5386 ft | 4 kts | 2° |
| 2026-04-21 21:51 | 39.85734 | -104.67955 | 5384 ft | 4 kts | 2° |
| 2026-04-21 21:51 | 39.85720 | -104.67956 | 5382 ft | 0 kts | 2° |
| 2026-04-21 21:54 | 39.85728 | -104.67950 | 5385 ft | 4 kts | 32° |
| 2026-04-21 21:54 | 39.85717 | -104.67891 | 5382 ft | 10 kts | 126° |
| 2026-04-21 21:54 | 39.85677 | -104.67800 | 5385 ft | 13 kts | 105° |
| 2026-04-21 21:55 | 39.85677 | -104.67677 | 5386 ft | 15 kts | 88° |
| 2026-04-21 21:55 | 39.85681 | -104.67535 | 5386 ft | 17 kts | 88° |
| 2026-04-21 21:55 | 39.85686 | -104.67376 | 5386 ft | 19 kts | 87° |
| 2026-04-21 21:55 | 39.85691 | -104.67199 | 5386 ft | 21 kts | 90° |
| 2026-04-21 21:56 | 39.85690 | -104.67008 | 5386 ft | 21 kts | 91° |
| 2026-04-21 21:56 | 39.85687 | -104.66808 | 5387 ft | 23 kts | 89° |
| 2026-04-21 21:56 | 39.85685 | -104.66591 | 5387 ft | 25 kts | 91° |
| 2026-04-21 21:56 | 39.85683 | -104.66413 | 5388 ft | 17 kts | 91° |
| 2026-04-21 21:57 | 39.85688 | -104.66278 | 5396 ft | 13 kts | 66° |
| 2026-04-21 21:57 | 39.85770 | -104.66237 | 5392 ft | 14 kts | 360° |
| 2026-04-21 21:57 | 39.85877 | -104.66235 | 5394 ft | 17 kts | 0° |
| 2026-04-21 21:57 | 39.86005 | -104.66234 | 5388 ft | 20 kts | 0° |
| 2026-04-21 21:58 | 39.86152 | -104.66233 | 5387 ft | 23 kts | 360° |
| 2026-04-21 21:58 | 39.86317 | -104.66235 | 5382 ft | 25 kts | 0° |
| 2026-04-21 21:58 | 39.86492 | -104.66230 | 5383 ft | 24 kts | 1° |
| 2026-04-21 21:58 | 39.86656 | -104.66226 | 5382 ft | 26 kts | 0° |
| 2026-04-21 21:59 | 39.86784 | -104.66224 | 5377 ft | 28 kts | 0° |
| 2026-04-21 21:59 | 39.86991 | -104.66224 | 5370 ft | 31 kts | 0° |
| 2026-04-21 21:59 | 39.87191 | -104.66223 | 5366 ft | 22 kts | 1° |
| 2026-04-21 22:00 | 39.87350 | -104.66220 | 5365 ft | 23 kts | 0° |
| 2026-04-21 22:00 | 39.87510 | -104.66216 | 5364 ft | 23 kts | 1° |
| 2026-04-21 22:00 | 39.87659 | -104.66214 | 5362 ft | 17 kts | 0° |
| 2026-04-21 22:00 | 39.87756 | -104.66163 | 5359 ft | 17 kts | 81° |
| 2026-04-21 22:01 | 39.87755 | -104.66099 | 5357 ft | 0 kts | 90° |
| 2026-04-21 22:01 | 39.87753 | -104.65924 | 5356 ft | 43 kts | 91° |
| 2026-04-21 22:01 | 39.87749 | -104.65302 | 5355 ft | 93 kts | 90° |
| 2026-04-21 22:01 | 39.87741 | -104.64229 | 5332 ft | 144 kts | 91° |
| 2026-04-21 22:02 | 39.87731 | -104.62733 | 5444 ft | 178 kts | 90° |
| 2026-04-21 22:02 | 39.87720 | -104.61129 | 6181 ft | 179 kts | 93° |
| 2026-04-21 22:02 | 39.87613 | -104.59527 | 6702 ft | 180 kts | 105° |
| 2026-04-21 22:02 | 39.87152 | -104.58010 | 7215 ft | 183 kts | 115° |
| 2026-04-21 22:03 | 39.86620 | -104.56409 | 7365 ft | 203 kts | 115° |
| 2026-04-21 22:03 | 39.86028 | -104.54615 | 7547 ft | 229 kts | 115° |
| 2026-04-21 22:03 | 39.85429 | -104.52791 | 7779 ft | 251 kts | 114° |
| 2026-04-21 22:04 | 39.85204 | -104.52106 | 7846 ft | 260 kts | 114° |
| 2026-04-21 22:04 | 39.84474 | -104.49872 | 8307 ft | 274 kts | 115° |
| 2026-04-21 22:04 | 39.83719 | -104.47565 | 9013 ft | 279 kts | 114° |
| 2026-04-21 22:05 | 39.82950 | -104.45219 | 9771 ft | 284 kts | 114° |
| 2026-04-21 22:05 | 39.82162 | -104.42820 | 10282 ft | 298 kts | 115° |
| 2026-04-21 22:05 | 39.81315 | -104.40259 | 10524 ft | 317 kts | 115° |
| 2026-04-21 22:05 | 39.80423 | -104.37595 | 11065 ft | 325 kts | 115° |
| 2026-04-21 22:06 | 39.79491 | -104.34891 | 11692 ft | 330 kts | 116° |
| 2026-04-21 22:06 | 39.78541 | -104.32173 | 12375 ft | 332 kts | 116° |
| 2026-04-21 22:06 | 39.77573 | -104.29412 | 13039 ft | 337 kts | 116° |
| 2026-04-21 22:06 | 39.76595 | -104.26623 | 13734 ft | 341 kts | 116° |
| 2026-04-21 22:07 | 39.75608 | -104.23797 | 14337 ft | 345 kts | 116° |
| 2026-04-21 22:07 | 39.74613 | -104.20940 | 14899 ft | 350 kts | 116° |
| 2026-04-21 22:07 | 39.73598 | -104.18027 | 15439 ft | 356 kts | 116° |
| 2026-04-21 22:07 | 39.72567 | -104.15074 | 15974 ft | 362 kts | 116° |
| 2026-04-21 22:08 | 39.71515 | -104.12071 | 16519 ft | 367 kts | 116° |
| 2026-04-21 22:08 | 39.70457 | -104.09075 | 17057 ft | 373 kts | 116° |
| 2026-04-21 22:08 | 39.69363 | -104.05995 | 17620 ft | 378 kts | 116° |
| 2026-04-21 22:08 | 39.68252 | -104.02875 | 18171 ft | 383 kts | 116° |
| 2026-04-21 22:09 | 39.67127 | -103.99710 | 18672 ft | 388 kts | 116° |
| 2026-04-21 22:09 | 39.65996 | -103.96518 | 19212 ft | 391 kts | 116° |
| 2026-04-21 22:09 | 39.64832 | -103.93318 | 19765 ft | 393 kts | 117° |
| 2026-04-21 22:09 | 39.63583 | -103.90146 | 20342 ft | 395 kts | 119° |
| 2026-04-21 22:10 | 39.62283 | -103.87000 | 20912 ft | 397 kts | 120° |
| 2026-04-21 22:10 | 39.60948 | -103.83840 | 21437 ft | 401 kts | 120° |
| 2026-04-21 22:10 | 39.59608 | -103.80654 | 21951 ft | 404 kts | 118° |
| 2026-04-21 22:10 | 39.58517 | -103.77278 | 22465 ft | 409 kts | 111° |
| 2026-04-21 22:11 | 39.57527 | -103.73814 | 23007 ft | 411 kts | 111° |
| 2026-04-21 22:11 | 39.56538 | -103.70307 | 23475 ft | 415 kts | 111° |
| 2026-04-21 22:11 | 39.55549 | -103.66777 | 23910 ft | 418 kts | 110° |
| 2026-04-21 22:11 | 39.54558 | -103.63241 | 24361 ft | 420 kts | 111° |
| 2026-04-21 22:12 | 39.53556 | -103.59682 | 24804 ft | 421 kts | 111° |
| 2026-04-21 22:12 | 39.52549 | -103.56117 | 25282 ft | 421 kts | 111° |
| 2026-04-21 22:12 | 39.51534 | -103.52543 | 25652 ft | 425 kts | 111° |
| 2026-04-21 22:12 | 39.50509 | -103.48944 | 26094 ft | 426 kts | 111° |
| 2026-04-21 22:13 | 39.49480 | -103.45331 | 26516 ft | 428 kts | 111° |
| 2026-04-21 22:13 | 39.48462 | -103.41755 | 26943 ft | 429 kts | 110° |
| 2026-04-21 22:13 | 39.47429 | -103.38126 | 27362 ft | 431 kts | 111° |
| 2026-04-21 22:13 | 39.46387 | -103.34479 | 27769 ft | 432 kts | 111° |
| 2026-04-21 22:14 | 39.45339 | -103.30817 | 28175 ft | 435 kts | 111° |
| 2026-04-21 22:14 | 39.44286 | -103.27145 | 28566 ft | 437 kts | 111° |
| 2026-04-21 22:14 | 39.43225 | -103.23454 | 28969 ft | 439 kts | 111° |
| 2026-04-21 22:14 | 39.42155 | -103.19741 | 29350 ft | 441 kts | 111° |
| 2026-04-21 22:15 | 39.41082 | -103.16016 | 29729 ft | 443 kts | 111° |
| 2026-04-21 22:15 | 39.40004 | -103.12276 | 30095 ft | 445 kts | 110° |
| 2026-04-21 22:15 | 39.38922 | -103.08524 | 30407 ft | 446 kts | 110° |
| 2026-04-21 22:15 | 39.37836 | -103.04755 | 30704 ft | 448 kts | 111° |
| 2026-04-21 22:16 | 39.36740 | -103.00972 | 30983 ft | 451 kts | 111° |
| 2026-04-21 22:16 | 39.35635 | -102.97168 | 31260 ft | 453 kts | 111° |
| 2026-04-21 22:16 | 39.34392 | -102.93412 | 31515 ft | 455 kts | 117° |
| 2026-04-21 22:16 | 39.32979 | -102.89807 | 31773 ft | 457 kts | 118° |
| 2026-04-21 22:17 | 39.31542 | -102.86144 | 32127 ft | 457 kts | 118° |
| 2026-04-21 22:17 | 39.30084 | -102.82435 | 32507 ft | 456 kts | 117° |
| 2026-04-21 22:17 | 39.28668 | -102.78836 | 32907 ft | 455 kts | 117° |
| 2026-04-21 22:17 | 39.27233 | -102.75190 | 33292 ft | 455 kts | 117° |
| 2026-04-21 22:18 | 39.25803 | -102.71555 | 33728 ft | 454 kts | 117° |
| 2026-04-21 22:18 | 39.24377 | -102.67926 | 34129 ft | 452 kts | 117° |
| 2026-04-21 22:18 | 39.22953 | -102.64305 | 34487 ft | 452 kts | 117° |
| 2026-04-21 22:18 | 39.21531 | -102.60699 | 34819 ft | 451 kts | 117° |
| 2026-04-21 22:19 | 39.20106 | -102.57094 | 34930 ft | 448 kts | 117° |
| 2026-04-21 22:19 | 39.17305 | -102.50008 | 34970 ft | 444 kts | 117° |
| 2026-04-21 22:20 | 39.14448 | -102.42815 | 34984 ft | 457 kts | 118° |
| 2026-04-21 22:20 | 39.11514 | -102.35460 | 34987 ft | 470 kts | 117° |
| 2026-04-21 22:21 | 39.08483 | -102.27897 | 34976 ft | 473 kts | 117° |
| 2026-04-21 22:21 | 39.05476 | -102.20423 | 34957 ft | 473 kts | 117° |
| 2026-04-21 22:22 | 39.02446 | -102.12910 | 34874 ft | 473 kts | 117° |
| 2026-04-21 22:22 | 38.99409 | -102.05401 | 34873 ft | 473 kts | 117° |
| 2026-04-21 22:23 | 38.96369 | -101.97898 | 34863 ft | 473 kts | 117° |
| 2026-04-21 22:23 | 38.93329 | -101.90416 | 34866 ft | 473 kts | 117° |
| 2026-04-21 22:24 | 38.90284 | -101.82936 | 34859 ft | 472 kts | 117° |
| 2026-04-21 22:24 | 38.87250 | -101.75523 | 34863 ft | 472 kts | 118° |
| 2026-04-21 22:24 | 38.85424 | -101.72025 | 34854 ft | 472 kts | 129° |
| 2026-04-21 22:25 | 38.83133 | -101.69009 | 34853 ft | 472 kts | 140° |
| 2026-04-21 22:25 | 38.77609 | -101.64467 | 34857 ft | 473 kts | 149° |
| 2026-04-21 22:26 | 38.71918 | -101.60242 | 34855 ft | 473 kts | 149° |
| 2026-04-21 22:26 | 38.66223 | -101.56006 | 34855 ft | 474 kts | 149° |
| 2026-04-21 22:27 | 38.60529 | -101.51759 | 34858 ft | 474 kts | 149° |
| 2026-04-21 22:27 | 38.54826 | -101.47519 | 34863 ft | 474 kts | 149° |
| 2026-04-21 22:28 | 38.49117 | -101.43299 | 34867 ft | 474 kts | 149° |
| 2026-04-21 22:28 | 38.43446 | -101.39112 | 34874 ft | 474 kts | 149° |
| 2026-04-21 22:29 | 38.37735 | -101.34896 | 34874 ft | 474 kts | 149° |
| 2026-04-21 22:29 | 38.32030 | -101.30687 | 34882 ft | 474 kts | 149° |
| 2026-04-21 22:30 | 38.26317 | -101.26488 | 34882 ft | 474 kts | 149° |
| 2026-04-21 22:30 | 38.20604 | -101.22304 | 34882 ft | 474 kts | 149° |
| 2026-04-21 22:31 | 38.14888 | -101.18121 | 34887 ft | 474 kts | 148° |
| 2026-04-21 22:31 | 38.09168 | -101.13937 | 34890 ft | 474 kts | 149° |
| 2026-04-21 22:32 | 38.03456 | -101.09763 | 34895 ft | 474 kts | 148° |
| 2026-04-21 22:32 | 37.97746 | -101.05603 | 34898 ft | 473 kts | 148° |
| 2026-04-21 22:33 | 37.92037 | -101.01455 | 34945 ft | 473 kts | 148° |
| 2026-04-21 22:33 | 37.86360 | -100.97335 | 34951 ft | 473 kts | 148° |
| 2026-04-21 22:34 | 37.80647 | -100.93191 | 34954 ft | 473 kts | 148° |
| 2026-04-21 22:34 | 37.74932 | -100.89064 | 34950 ft | 473 kts | 149° |
| 2026-04-21 22:35 | 37.69215 | -100.84946 | 34943 ft | 473 kts | 149° |
| 2026-04-21 22:35 | 37.63501 | -100.80823 | 34943 ft | 473 kts | 148° |
| 2026-04-21 22:36 | 37.54941 | -100.74655 | 34930 ft | 472 kts | 148° |
| 2026-04-21 22:36 | 37.49225 | -100.70555 | 34941 ft | 472 kts | 148° |
| 2026-04-21 22:37 | 37.43562 | -100.66500 | 34943 ft | 471 kts | 147° |
| 2026-04-21 22:37 | 37.37830 | -100.62406 | 34952 ft | 470 kts | 148° |
| 2026-04-21 22:38 | 37.32140 | -100.58346 | 34958 ft | 470 kts | 148° |
| 2026-04-21 22:38 | 37.26483 | -100.54315 | 34955 ft | 470 kts | 148° |
| 2026-04-21 22:39 | 37.20784 | -100.50255 | 34954 ft | 471 kts | 148° |
| 2026-04-21 22:39 | 37.15083 | -100.46215 | 34954 ft | 471 kts | 148° |
| 2026-04-21 22:40 | 37.09383 | -100.42177 | 34960 ft | 471 kts | 148° |
| 2026-04-21 22:40 | 37.04603 | -100.38799 | 34961 ft | 471 kts | 148° |
| 2026-04-21 22:41 | 36.98900 | -100.34770 | 34965 ft | 471 kts | 148° |
| 2026-04-21 22:41 | 36.93243 | -100.30772 | 34966 ft | 470 kts | 148° |
| 2026-04-21 22:42 | 36.87542 | -100.26755 | 34974 ft | 470 kts | 148° |
| 2026-04-21 22:42 | 36.81837 | -100.22755 | 34971 ft | 470 kts | 148° |
| 2026-04-21 22:43 | 36.76138 | -100.18760 | 34976 ft | 470 kts | 148° |
| 2026-04-21 22:43 | 36.70434 | -100.14764 | 34970 ft | 470 kts | 148° |
| 2026-04-21 22:44 | 36.64729 | -100.10774 | 34982 ft | 470 kts | 148° |
| 2026-04-21 22:44 | 36.59014 | -100.06791 | 34985 ft | 471 kts | 148° |
| 2026-04-21 22:45 | 36.53294 | -100.02803 | 34996 ft | 471 kts | 148° |
| 2026-04-21 22:45 | 36.47578 | -99.98818 | 35014 ft | 471 kts | 148° |
| 2026-04-21 22:46 | 36.41852 | -99.94835 | 35040 ft | 472 kts | 148° |
| 2026-04-21 22:46 | 36.36126 | -99.90866 | 35054 ft | 472 kts | 148° |
| 2026-04-21 22:47 | 36.33277 | -99.88900 | 35057 ft | 461 kts | 148° |
| 2026-04-21 22:47 | 36.30511 | -99.87000 | 35060 ft | 448 kts | 148° |
| 2026-04-21 22:47 | 36.25144 | -99.83304 | 35070 ft | 438 kts | 147° |
| 2026-04-21 22:48 | 36.19860 | -99.79652 | 35015 ft | 438 kts | 147° |
| 2026-04-21 22:48 | 36.17208 | -99.77822 | 34742 ft | 434 kts | 147° |
| 2026-04-21 22:48 | 36.14572 | -99.76006 | 34297 ft | 433 kts | 147° |
| 2026-04-21 22:49 | 36.11943 | -99.74196 | 33801 ft | 432 kts | 147° |
| 2026-04-21 22:49 | 36.09326 | -99.72397 | 33331 ft | 429 kts | 147° |
| 2026-04-21 22:49 | 36.06728 | -99.70615 | 32866 ft | 426 kts | 148° |
| 2026-04-21 22:49 | 36.04147 | -99.68842 | 32413 ft | 423 kts | 148° |
| 2026-04-21 22:50 | 36.01579 | -99.67077 | 31972 ft | 420 kts | 149° |
| 2026-04-21 22:50 | 35.99027 | -99.65327 | 31517 ft | 419 kts | 149° |
| 2026-04-21 22:50 | 35.96487 | -99.63589 | 31094 ft | 416 kts | 150° |
| 2026-04-21 22:50 | 35.93957 | -99.61861 | 30661 ft | 415 kts | 149° |
| 2026-04-21 22:51 | 35.91469 | -99.60163 | 30244 ft | 413 kts | 150° |
| 2026-04-21 22:51 | 35.88954 | -99.58446 | 29786 ft | 412 kts | 150° |
| 2026-04-21 22:51 | 35.86459 | -99.56742 | 29384 ft | 408 kts | 150° |
| 2026-04-21 22:51 | 35.83983 | -99.55049 | 28992 ft | 406 kts | 150° |
| 2026-04-21 22:52 | 35.81514 | -99.53363 | 28588 ft | 404 kts | 150° |
| 2026-04-21 22:52 | 35.79064 | -99.51692 | 28201 ft | 401 kts | 150° |
| 2026-04-21 22:52 | 35.76684 | -99.49929 | 27813 ft | 398 kts | 142° |
| 2026-04-21 22:52 | 35.74672 | -99.47630 | 27432 ft | 393 kts | 128° |
| 2026-04-21 22:53 | 35.73159 | -99.44869 | 27054 ft | 386 kts | 115° |
| 2026-04-21 22:53 | 35.72199 | -99.41824 | 26674 ft | 380 kts | 101° |
| 2026-04-21 22:53 | 35.71797 | -99.38647 | 26304 ft | 373 kts | 90° |
| 2026-04-21 22:53 | 35.71620 | -99.35471 | 25916 ft | 371 kts | 90° |
| 2026-04-21 22:54 | 35.71441 | -99.32315 | 25543 ft | 368 kts | 91° |
| 2026-04-21 22:54 | 35.71257 | -99.29191 | 25153 ft | 366 kts | 92° |
| 2026-04-21 22:54 | 35.71072 | -99.26078 | 24763 ft | 363 kts | 92° |
| 2026-04-21 22:54 | 35.70886 | -99.22986 | 24380 ft | 361 kts | 91° |
| 2026-04-21 22:55 | 35.70705 | -99.19949 | 23988 ft | 360 kts | 92° |
| 2026-04-21 22:55 | 35.70522 | -99.16885 | 23585 ft | 358 kts | 91° |
| 2026-04-21 22:55 | 35.70339 | -99.13833 | 23158 ft | 356 kts | 91° |
| 2026-04-21 22:55 | 35.70156 | -99.10816 | 22764 ft | 352 kts | 91° |
| 2026-04-21 22:56 | 35.69974 | -99.07830 | 22392 ft | 349 kts | 91° |
| 2026-04-21 22:56 | 35.69794 | -99.04871 | 21996 ft | 346 kts | 91° |
| 2026-04-21 22:56 | 35.69614 | -99.01929 | 21619 ft | 343 kts | 92° |
| 2026-04-21 22:56 | 35.69438 | -98.99019 | 21238 ft | 340 kts | 93° |
| 2026-04-21 22:57 | 35.69264 | -98.96126 | 20856 ft | 338 kts | 91° |
| 2026-04-21 22:57 | 35.69091 | -98.93256 | 20486 ft | 336 kts | 92° |
| 2026-04-21 22:57 | 35.68919 | -98.90396 | 20107 ft | 334 kts | 92° |
| 2026-04-21 22:57 | 35.68746 | -98.87554 | 19737 ft | 332 kts | 93° |
| 2026-04-21 22:58 | 35.68571 | -98.84727 | 19365 ft | 331 kts | 92° |
| 2026-04-21 22:58 | 35.68394 | -98.81913 | 18995 ft | 330 kts | 92° |
| 2026-04-21 22:58 | 35.68218 | -98.79107 | 18626 ft | 328 kts | 93° |
| 2026-04-21 22:58 | 35.68043 | -98.76312 | 18226 ft | 327 kts | 92° |
| 2026-04-21 22:59 | 35.67869 | -98.73524 | 17733 ft | 328 kts | 92° |
| 2026-04-21 22:59 | 35.67693 | -98.70730 | 17318 ft | 327 kts | 92° |
| 2026-04-21 22:59 | 35.67519 | -98.67991 | 16949 ft | 324 kts | 93° |
| 2026-04-21 22:59 | 35.67344 | -98.65234 | 16580 ft | 322 kts | 94° |
| 2026-04-21 23:00 | 35.67170 | -98.62502 | 16210 ft | 320 kts | 94° |
| 2026-04-21 23:00 | 35.66994 | -98.59788 | 15854 ft | 317 kts | 93° |
| 2026-04-21 23:00 | 35.66820 | -98.57086 | 15497 ft | 316 kts | 94° |
| 2026-04-21 23:00 | 35.66648 | -98.54404 | 15137 ft | 314 kts | 94° |
| 2026-04-21 23:01 | 35.66478 | -98.51730 | 14780 ft | 313 kts | 93° |
| 2026-04-21 23:01 | 35.66308 | -98.49072 | 14424 ft | 311 kts | 94° |
| 2026-04-21 23:01 | 35.66135 | -98.46422 | 14065 ft | 310 kts | 94° |
| 2026-04-21 23:01 | 35.65960 | -98.43784 | 13677 ft | 309 kts | 94° |
| 2026-04-21 23:02 | 35.65786 | -98.41159 | 13313 ft | 307 kts | 94° |
| 2026-04-21 23:02 | 35.65558 | -98.38562 | 12959 ft | 305 kts | 101° |
| 2026-04-21 23:02 | 35.65069 | -98.36037 | 12606 ft | 302 kts | 103° |
| 2026-04-21 23:02 | 35.64572 | -98.33538 | 12284 ft | 300 kts | 103° |
| 2026-04-21 23:03 | 35.64079 | -98.31055 | 11942 ft | 298 kts | 103° |
| 2026-04-21 23:03 | 35.63591 | -98.28584 | 11606 ft | 297 kts | 103° |
| 2026-04-21 23:03 | 35.63109 | -98.26124 | 11270 ft | 295 kts | 103° |
| 2026-04-21 23:03 | 35.62627 | -98.23679 | 10935 ft | 294 kts | 103° |
| 2026-04-21 23:04 | 35.62146 | -98.21247 | 10593 ft | 292 kts | 103° |
| 2026-04-21 23:04 | 35.61668 | -98.18820 | 10269 ft | 291 kts | 103° |
| 2026-04-21 23:04 | 35.61204 | -98.16406 | 9928 ft | 290 kts | 103° |
| 2026-04-21 23:04 | 35.60758 | -98.13995 | 9570 ft | 288 kts | 103° |
| 2026-04-21 23:05 | 35.60322 | -98.11601 | 9244 ft | 286 kts | 104° |
| 2026-04-21 23:05 | 35.59889 | -98.09228 | 8915 ft | 284 kts | 105° |
| 2026-04-21 23:05 | 35.59461 | -98.06894 | 8595 ft | 282 kts | 105° |
| 2026-04-21 23:05 | 35.59026 | -98.04520 | 8262 ft | 281 kts | 105° |
| 2026-04-21 23:06 | 35.58595 | -98.02183 | 7937 ft | 280 kts | 107° |
| 2026-04-21 23:06 | 35.58168 | -97.99885 | 7616 ft | 279 kts | 105° |
| 2026-04-21 23:06 | 35.57728 | -97.97534 | 7280 ft | 278 kts | 108° |
| 2026-04-21 23:06 | 35.57293 | -97.95255 | 6957 ft | 277 kts | 108° |
| 2026-04-21 23:07 | 35.56851 | -97.92954 | 6631 ft | 276 kts | 107° |
| 2026-04-21 23:07 | 35.56410 | -97.90663 | 6284 ft | 275 kts | 107° |
| 2026-04-21 23:07 | 35.55967 | -97.88378 | 5949 ft | 274 kts | 107° |
| 2026-04-21 23:07 | 35.55526 | -97.86104 | 5627 ft | 273 kts | 107° |
| 2026-04-21 23:08 | 35.55090 | -97.83848 | 5386 ft | 268 kts | 107° |
| 2026-04-21 23:08 | 35.54671 | -97.81660 | 5299 ft | 257 kts | 108° |
| 2026-04-21 23:08 | 35.54268 | -97.79563 | 5189 ft | 248 kts | 108° |
| 2026-04-21 23:08 | 35.53880 | -97.77542 | 5083 ft | 236 kts | 108° |
| 2026-04-21 23:09 | 35.53554 | -97.75619 | 5012 ft | 225 kts | 101° |
| 2026-04-21 23:09 | 35.53532 | -97.73727 | 4815 ft | 219 kts | 95° |
| 2026-04-21 23:09 | 35.53536 | -97.71884 | 4616 ft | 212 kts | 96° |
| 2026-04-21 23:09 | 35.53539 | -97.70105 | 4430 ft | 205 kts | 96° |
| 2026-04-21 23:10 | 35.53541 | -97.68373 | 4259 ft | 202 kts | 96° |
| 2026-04-21 23:10 | 35.53542 | -97.66659 | 4089 ft | 200 kts | 96° |
| 2026-04-21 23:10 | 35.53499 | -97.64968 | 3909 ft | 195 kts | 105° |
| 2026-04-21 23:10 | 35.53095 | -97.63432 | 3759 ft | 183 kts | 123° |
| 2026-04-21 23:11 | 35.52391 | -97.62198 | 3557 ft | 172 kts | 138° |
| 2026-04-21 23:11 | 35.51488 | -97.61311 | 3367 ft | 162 kts | 153° |
| 2026-04-21 23:11 | 35.50500 | -97.60783 | 3182 ft | 146 kts | 166° |
| 2026-04-21 23:11 | 35.49567 | -97.60587 | 3035 ft | 130 kts | 176° |
| 2026-04-21 23:12 | 35.48677 | -97.60582 | 2883 ft | 126 kts | 179° |
| 2026-04-21 23:12 | 35.47810 | -97.60580 | 2712 ft | 124 kts | 178° |
| 2026-04-21 23:12 | 35.46953 | -97.60578 | 2547 ft | 122 kts | 178° |
| 2026-04-21 23:12 | 35.46098 | -97.60578 | 2395 ft | 123 kts | 180° |
| 2026-04-21 23:13 | 35.45260 | -97.60580 | 2229 ft | 122 kts | 179° |
| 2026-04-21 23:13 | 35.44409 | -97.60580 | 2056 ft | 122 kts | 178° |
| 2026-04-21 23:13 | 35.43550 | -97.60578 | 1898 ft | 125 kts | 178° |
| 2026-04-21 23:13 | 35.42680 | -97.60576 | 1720 ft | 124 kts | 176° |
| 2026-04-21 23:14 | 35.41830 | -97.60587 | 1587 ft | 122 kts | 177° |
| 2026-04-21 23:14 | 35.40987 | -97.60581 | 1431 ft | 121 kts | 176° |
| 2026-04-21 23:14 | 35.40167 | -97.60573 | 1299 ft | 108 kts | 177° |
| 2026-04-21 23:14 | 35.39555 | -97.60571 | 1290 ft | 66 kts | 180° |
| 2026-04-21 23:15 | 35.39270 | -97.60573 | 1296 ft | 16 kts | 187° |
| 2026-04-21 23:15 | 35.39221 | -97.60637 | 1296 ft | 7 kts | 262° |
| 2026-04-21 23:15 | 35.39220 | -97.60638 | 1296 ft | 0 kts | 262° |